sensor_id;sensor_type;location;lat;lon;timestamp;temperature;humidity
19829;DHT22;10075;50.924;4.396;2023-05-07T00:01:07;17.30;99.90
19829;DHT22;10075;50.924;4.396;2023-05-07T00:03:36;17.30;99.90
19829;DHT22;10075;50.924;4.396;2023-05-07T00:06:03;17.40;99.90
19829;DHT22;10075;50.924;4.396;2023-05-07T00:08:30;17.40;99.90
19829;DHT22;10075;50.924;4.396;2023-05-07T00:10:57;17.40;99.90
19829;DHT22;10075;50.924;4.396;2023-05-07T00:13:24;17.50;99.90
19829;DHT22;10075;50.924;4.396;2023-05-07T00:15:51;17.50;99.90
19829;DHT22;10075;50.924;4.396;2023-05-07T00:18:18;17.50;99.90
19829;DHT22;10075;50.924;4.396;2023-05-07T00:20:49;17.40;99.90
19829;DHT22;10075;50.924;4.396;2023-05-07T00:23:16;17.40;99.90
19829;DHT22;10075;50.924;4.396;2023-05-07T00:25:43;17.40;99.90
19829;DHT22;10075;50.924;4.396;2023-05-07T00:28:10;17.50;99.90
19829;DHT22;10075;50.924;4.396;2023-05-07T00:30:37;17.50;99.90
19829;DHT22;10075;50.924;4.396;2023-05-07T00:33:04;17.40;99.90
19829;DHT22;10075;50.924;4.396;2023-05-07T00:35:31;17.40;99.90
19829;DHT22;10075;50.924;4.396;2023-05-07T00:37:59;17.40;99.90
19829;DHT22;10075;50.924;4.396;2023-05-07T00:40:26;17.50;99.90
19829;DHT22;10075;50.924;4.396;2023-05-07T00:42:53;17.50;99.90
19829;DHT22;10075;50.924;4.396;2023-05-07T00:45:26;17.50;99.90
19829;DHT22;10075;50.924;4.396;2023-05-07T00:47:54;17.50;99.90
19829;DHT22;10075;50.924;4.396;2023-05-07T00:50:22;17.50;99.90
19829;DHT22;10075;50.924;4.396;2023-05-07T00:52:49;17.50;99.90
19829;DHT22;10075;50.924;4.396;2023-05-07T00:55:18;17.50;99.90
19829;DHT22;10075;50.924;4.396;2023-05-07T00:57:45;17.50;99.90
19829;DHT22;10075;50.924;4.396;2023-05-07T01:00:13;17.50;99.90
19829;DHT22;10075;50.924;4.396;2023-05-07T01:02:40;17.50;99.90
19829;DHT22;10075;50.924;4.396;2023-05-07T01:05:10;17.50;99.90
19829;DHT22;10075;50.924;4.396;2023-05-07T01:07:40;17.50;99.90
19829;DHT22;10075;50.924;4.396;2023-05-07T01:10:08;17.50;99.90
19829;DHT22;10075;50.924;4.396;2023-05-07T01:12:38;17.50;99.90
19829;DHT22;10075;50.924;4.396;2023-05-07T01:15:07;17.50;99.90
19829;DHT22;10075;50.924;4.396;2023-05-07T01:17:35;17.50;99.90
19829;DHT22;10075;50.924;4.396;2023-05-07T01:20:02;17.50;99.90
19829;DHT22;10075;50.924;4.396;2023-05-07T01:22:32;17.50;99.90
19829;DHT22;10075;50.924;4.396;2023-05-07T01:25:00;17.50;99.90
19829;DHT22;10075;50.924;4.396;2023-05-07T01:27:27;17.50;99.90
19829;DHT22;10075;50.924;4.396;2023-05-07T01:29:54;17.40;99.90
19829;DHT22;10075;50.924;4.396;2023-05-07T01:32:27;17.40;99.90
19829;DHT22;10075;50.924;4.396;2023-05-07T01:34:56;17.40;99.90
19829;DHT22;10075;50.924;4.396;2023-05-07T01:37:25;17.30;99.90
19829;DHT22;10075;50.924;4.396;2023-05-07T01:39:54;17.30;99.90
19829;DHT22;10075;50.924;4.396;2023-05-07T01:42:21;17.20;99.90
19829;DHT22;10075;50.924;4.396;2023-05-07T01:44:48;17.20;99.90
19829;DHT22;10075;50.924;4.396;2023-05-07T01:47:16;17.20;99.90
19829;DHT22;10075;50.924;4.396;2023-05-07T01:49:43;17.10;99.90
19829;DHT22;10075;50.924;4.396;2023-05-07T01:52:11;17.00;99.90
19829;DHT22;10075;50.924;4.396;2023-05-07T01:54:38;17.00;99.90
19829;DHT22;10075;50.924;4.396;2023-05-07T01:57:06;16.90;99.90
19829;DHT22;10075;50.924;4.396;2023-05-07T01:59:33;16.80;99.90
19829;DHT22;10075;50.924;4.396;2023-05-07T02:02:00;16.70;99.90
19829;DHT22;10075;50.924;4.396;2023-05-07T02:04:27;16.70;99.90
19829;DHT22;10075;50.924;4.396;2023-05-07T02:06:54;16.60;99.90
19829;DHT22;10075;50.924;4.396;2023-05-07T02:09:21;16.60;99.90
19829;DHT22;10075;50.924;4.396;2023-05-07T02:11:49;16.50;99.90
19829;DHT22;10075;50.924;4.396;2023-05-07T02:14:17;16.50;99.90
19829;DHT22;10075;50.924;4.396;2023-05-07T02:16:45;16.50;99.90
19829;DHT22;10075;50.924;4.396;2023-05-07T02:19:12;16.40;99.90
19829;DHT22;10075;50.924;4.396;2023-05-07T02:21:39;16.50;99.90
19829;DHT22;10075;50.924;4.396;2023-05-07T02:24:06;16.50;99.90
19829;DHT22;10075;50.924;4.396;2023-05-07T02:26:33;16.50;99.90
19829;DHT22;10075;50.924;4.396;2023-05-07T02:29:00;16.50;99.90
19829;DHT22;10075;50.924;4.396;2023-05-07T02:31:29;16.50;99.90
19829;DHT22;10075;50.924;4.396;2023-05-07T02:33:56;16.50;99.90
19829;DHT22;10075;50.924;4.396;2023-05-07T02:36:23;16.40;99.90
19829;DHT22;10075;50.924;4.396;2023-05-07T02:38:50;16.40;99.90
19829;DHT22;10075;50.924;4.396;2023-05-07T02:41:17;16.40;99.90
19829;DHT22;10075;50.924;4.396;2023-05-07T02:43:44;16.30;99.90
19829;DHT22;10075;50.924;4.396;2023-05-07T02:46:10;16.30;99.90
19829;DHT22;10075;50.924;4.396;2023-05-07T02:48:39;16.30;99.90
19829;DHT22;10075;50.924;4.396;2023-05-07T02:51:06;16.30;99.90
19829;DHT22;10075;50.924;4.396;2023-05-07T02:53:33;16.30;99.90
19829;DHT22;10075;50.924;4.396;2023-05-07T02:56:00;16.40;99.90
19829;DHT22;10075;50.924;4.396;2023-05-07T02:58:28;16.40;99.90
19829;DHT22;10075;50.924;4.396;2023-05-07T03:00:55;16.50;99.90
19829;DHT22;10075;50.924;4.396;2023-05-07T03:03:22;16.60;99.90
19829;DHT22;10075;50.924;4.396;2023-05-07T03:05:50;16.50;99.90
19829;DHT22;10075;50.924;4.396;2023-05-07T03:08:17;16.50;99.90
19829;DHT22;10075;50.924;4.396;2023-05-07T03:10:44;16.60;99.90
19829;DHT22;10075;50.924;4.396;2023-05-07T03:13:11;16.60;99.90
19829;DHT22;10075;50.924;4.396;2023-05-07T03:15:38;16.60;99.90
19829;DHT22;10075;50.924;4.396;2023-05-07T03:18:05;16.60;99.90
19829;DHT22;10075;50.924;4.396;2023-05-07T03:20:32;16.60;99.90
19829;DHT22;10075;50.924;4.396;2023-05-07T03:23:00;16.60;99.90
19829;DHT22;10075;50.924;4.396;2023-05-07T03:25:28;16.60;99.90
19829;DHT22;10075;50.924;4.396;2023-05-07T03:27:55;16.70;99.90
19829;DHT22;10075;50.924;4.396;2023-05-07T03:30:22;16.70;99.90
19829;DHT22;10075;50.924;4.396;2023-05-07T03:32:49;16.70;99.90
19829;DHT22;10075;50.924;4.396;2023-05-07T03:35:17;16.70;99.90
19829;DHT22;10075;50.924;4.396;2023-05-07T03:37:43;16.70;99.90
19829;DHT22;10075;50.924;4.396;2023-05-07T03:40:12;16.70;99.90
19829;DHT22;10075;50.924;4.396;2023-05-07T03:42:39;16.70;99.90
19829;DHT22;10075;50.924;4.396;2023-05-07T03:45:07;16.70;99.90
19829;DHT22;10075;50.924;4.396;2023-05-07T03:47:34;16.80;99.90
19829;DHT22;10075;50.924;4.396;2023-05-07T03:50:01;16.80;99.90
19829;DHT22;10075;50.924;4.396;2023-05-07T03:52:28;16.80;99.90
19829;DHT22;10075;50.924;4.396;2023-05-07T03:54:55;16.80;99.90
19829;DHT22;10075;50.924;4.396;2023-05-07T03:57:24;16.80;99.90
19829;DHT22;10075;50.924;4.396;2023-05-07T03:59:51;16.80;99.90
19829;DHT22;10075;50.924;4.396;2023-05-07T04:02:18;16.80;99.90
19829;DHT22;10075;50.924;4.396;2023-05-07T04:04:45;16.90;99.90
19829;DHT22;10075;50.924;4.396;2023-05-07T04:07:12;16.90;99.90
19829;DHT22;10075;50.924;4.396;2023-05-07T04:09:39;16.90;99.90
19829;DHT22;10075;50.924;4.396;2023-05-07T04:12:06;16.90;99.90
19829;DHT22;10075;50.924;4.396;2023-05-07T04:14:34;16.90;99.90
19829;DHT22;10075;50.924;4.396;2023-05-07T04:17:01;16.90;99.90
19829;DHT22;10075;50.924;4.396;2023-05-07T04:19:28;16.80;99.90
19829;DHT22;10075;50.924;4.396;2023-05-07T04:21:55;16.80;99.90
19829;DHT22;10075;50.924;4.396;2023-05-07T04:24:22;16.80;99.90
19829;DHT22;10075;50.924;4.396;2023-05-07T04:26:49;16.90;99.90
19829;DHT22;10075;50.924;4.396;2023-05-07T04:29:16;16.90;99.90
19829;DHT22;10075;50.924;4.396;2023-05-07T04:31:45;16.90;99.90
19829;DHT22;10075;50.924;4.396;2023-05-07T04:34:11;16.90;99.90
19829;DHT22;10075;50.924;4.396;2023-05-07T04:36:39;17.00;99.90
19829;DHT22;10075;50.924;4.396;2023-05-07T04:39:06;17.00;99.90
19829;DHT22;10075;50.924;4.396;2023-05-07T04:41:35;17.00;99.90
19829;DHT22;10075;50.924;4.396;2023-05-07T04:44:02;17.10;99.90
19829;DHT22;10075;50.924;4.396;2023-05-07T04:46:30;17.10;99.90
19829;DHT22;10075;50.924;4.396;2023-05-07T04:48:58;17.10;99.90
19829;DHT22;10075;50.924;4.396;2023-05-07T04:51:25;17.10;99.90
19829;DHT22;10075;50.924;4.396;2023-05-07T04:53:53;17.20;99.90
19829;DHT22;10075;50.924;4.396;2023-05-07T04:56:20;17.20;99.90
19829;DHT22;10075;50.924;4.396;2023-05-07T04:58:50;17.20;99.90
19829;DHT22;10075;50.924;4.396;2023-05-07T05:01:17;17.10;99.90
19829;DHT22;10075;50.924;4.396;2023-05-07T05:03:44;17.10;99.90
19829;DHT22;10075;50.924;4.396;2023-05-07T05:06:12;17.20;99.90
19829;DHT22;10075;50.924;4.396;2023-05-07T05:08:39;17.20;99.90
19829;DHT22;10075;50.924;4.396;2023-05-07T05:11:06;17.20;99.90
19829;DHT22;10075;50.924;4.396;2023-05-07T05:13:33;17.20;99.90
19829;DHT22;10075;50.924;4.396;2023-05-07T05:16:00;17.20;99.90
19829;DHT22;10075;50.924;4.396;2023-05-07T05:18:27;17.30;99.90
19829;DHT22;10075;50.924;4.396;2023-05-07T05:20:54;17.30;99.90
19829;DHT22;10075;50.924;4.396;2023-05-07T05:23:22;17.40;99.90
19829;DHT22;10075;50.924;4.396;2023-05-07T05:25:49;17.40;99.90
19829;DHT22;10075;50.924;4.396;2023-05-07T05:28:16;17.50;99.90
19829;DHT22;10075;50.924;4.396;2023-05-07T05:30:43;17.60;99.90
19829;DHT22;10075;50.924;4.396;2023-05-07T05:33:10;17.70;99.90
19829;DHT22;10075;50.924;4.396;2023-05-07T05:35:37;17.70;99.90
19829;DHT22;10075;50.924;4.396;2023-05-07T05:38:04;17.70;99.90
19829;DHT22;10075;50.924;4.396;2023-05-07T05:40:32;17.70;99.90
19829;DHT22;10075;50.924;4.396;2023-05-07T05:42:59;17.80;99.90
19829;DHT22;10075;50.924;4.396;2023-05-07T05:45:27;17.90;99.90
19829;DHT22;10075;50.924;4.396;2023-05-07T05:47:56;17.90;99.90
19829;DHT22;10075;50.924;4.396;2023-05-07T05:50:23;18.00;99.90
19829;DHT22;10075;50.924;4.396;2023-05-07T05:52:50;18.10;99.90
19829;DHT22;10075;50.924;4.396;2023-05-07T05:55:17;18.10;99.90
19829;DHT22;10075;50.924;4.396;2023-05-07T05:57:45;18.20;99.90
19829;DHT22;10075;50.924;4.396;2023-05-07T06:00:13;18.30;99.90
19829;DHT22;10075;50.924;4.396;2023-05-07T06:02:41;18.30;99.90
19829;DHT22;10075;50.924;4.396;2023-05-07T06:05:09;18.40;99.90
19829;DHT22;10075;50.924;4.396;2023-05-07T06:07:36;18.40;99.90
19829;DHT22;10075;50.924;4.396;2023-05-07T06:10:03;18.50;99.90
19829;DHT22;10075;50.924;4.396;2023-05-07T06:12:31;18.30;99.90
19829;DHT22;10075;50.924;4.396;2023-05-07T06:14:59;18.10;99.90
19829;DHT22;10075;50.924;4.396;2023-05-07T06:17:27;17.90;99.90
19829;DHT22;10075;50.924;4.396;2023-05-07T06:19:54;17.80;99.90
19829;DHT22;10075;50.924;4.396;2023-05-07T06:22:20;17.70;99.90
19829;DHT22;10075;50.924;4.396;2023-05-07T06:24:47;17.70;99.90
19829;DHT22;10075;50.924;4.396;2023-05-07T06:27:14;17.70;99.90
19829;DHT22;10075;50.924;4.396;2023-05-07T06:29:41;17.70;99.90
19829;DHT22;10075;50.924;4.396;2023-05-07T06:32:10;17.70;99.90
19829;DHT22;10075;50.924;4.396;2023-05-07T06:34:38;17.70;99.90
19829;DHT22;10075;50.924;4.396;2023-05-07T06:37:06;17.80;99.90
19829;DHT22;10075;50.924;4.396;2023-05-07T06:39:33;17.80;99.90
19829;DHT22;10075;50.924;4.396;2023-05-07T06:42:00;17.80;99.90
19829;DHT22;10075;50.924;4.396;2023-05-07T06:44:27;17.60;99.90
19829;DHT22;10075;50.924;4.396;2023-05-07T06:46:54;17.60;99.90
19829;DHT22;10075;50.924;4.396;2023-05-07T06:49:23;17.60;99.90
19829;DHT22;10075;50.924;4.396;2023-05-07T06:51:50;17.70;99.90
19829;DHT22;10075;50.924;4.396;2023-05-07T06:54:17;17.70;99.90
19829;DHT22;10075;50.924;4.396;2023-05-07T06:56:44;17.80;99.90
19829;DHT22;10075;50.924;4.396;2023-05-07T06:59:11;17.80;99.90
19829;DHT22;10075;50.924;4.396;2023-05-07T07:01:38;17.80;99.90
19829;DHT22;10075;50.924;4.396;2023-05-07T07:04:05;17.90;99.90
19829;DHT22;10075;50.924;4.396;2023-05-07T07:06:33;18.00;99.90
19829;DHT22;10075;50.924;4.396;2023-05-07T07:09:00;18.20;99.90
19829;DHT22;10075;50.924;4.396;2023-05-07T07:11:27;18.30;99.90
19829;DHT22;10075;50.924;4.396;2023-05-07T07:13:54;18.50;99.90
19829;DHT22;10075;50.924;4.396;2023-05-07T07:16:22;18.50;99.90
19829;DHT22;10075;50.924;4.396;2023-05-07T07:18:49;18.60;99.90
19829;DHT22;10075;50.924;4.396;2023-05-07T07:21:16;18.70;99.90
19829;DHT22;10075;50.924;4.396;2023-05-07T07:23:44;18.90;99.90
19829;DHT22;10075;50.924;4.396;2023-05-07T07:26:11;19.00;99.90
19829;DHT22;10075;50.924;4.396;2023-05-07T07:28:42;19.10;99.90
19829;DHT22;10075;50.924;4.396;2023-05-07T07:31:10;19.10;99.90
19829;DHT22;10075;50.924;4.396;2023-05-07T07:33:37;19.10;99.90
19829;DHT22;10075;50.924;4.396;2023-05-07T07:36:05;18.90;99.90
19829;DHT22;10075;50.924;4.396;2023-05-07T07:38:32;19.00;99.90
19829;DHT22;10075;50.924;4.396;2023-05-07T07:41:01;19.10;99.90
19829;DHT22;10075;50.924;4.396;2023-05-07T07:43:28;19.10;99.90
19829;DHT22;10075;50.924;4.396;2023-05-07T07:45:55;19.20;99.90
19829;DHT22;10075;50.924;4.396;2023-05-07T07:48:22;19.30;99.90
19829;DHT22;10075;50.924;4.396;2023-05-07T07:50:50;19.30;99.90
19829;DHT22;10075;50.924;4.396;2023-05-07T07:53:17;19.20;99.90
19829;DHT22;10075;50.924;4.396;2023-05-07T07:55:44;19.10;99.90
19829;DHT22;10075;50.924;4.396;2023-05-07T07:58:13;19.00;99.90
19829;DHT22;10075;50.924;4.396;2023-05-07T08:00:40;18.70;99.90
19829;DHT22;10075;50.924;4.396;2023-05-07T08:03:09;18.70;99.90
19829;DHT22;10075;50.924;4.396;2023-05-07T08:05:36;18.90;99.90
19829;DHT22;10075;50.924;4.396;2023-05-07T08:08:04;18.80;99.90
19829;DHT22;10075;50.924;4.396;2023-05-07T08:10:31;18.70;99.90
19829;DHT22;10075;50.924;4.396;2023-05-07T08:13:00;18.60;99.90
19829;DHT22;10075;50.924;4.396;2023-05-07T08:15:30;18.60;99.90
19829;DHT22;10075;50.924;4.396;2023-05-07T08:17:58;18.70;99.90
19829;DHT22;10075;50.924;4.396;2023-05-07T08:20:25;18.80;99.90
19829;DHT22;10075;50.924;4.396;2023-05-07T08:22:52;18.70;99.90
19829;DHT22;10075;50.924;4.396;2023-05-07T08:25:19;18.70;99.90
19829;DHT22;10075;50.924;4.396;2023-05-07T08:27:46;18.70;99.90
19829;DHT22;10075;50.924;4.396;2023-05-07T08:30:14;18.60;99.90
19829;DHT22;10075;50.924;4.396;2023-05-07T08:32:43;18.80;99.90
19829;DHT22;10075;50.924;4.396;2023-05-07T08:35:10;19.10;99.90
19829;DHT22;10075;50.924;4.396;2023-05-07T08:37:37;19.30;99.90
19829;DHT22;10075;50.924;4.396;2023-05-07T08:40:05;19.60;99.90
19829;DHT22;10075;50.924;4.396;2023-05-07T08:42:35;19.70;99.90
19829;DHT22;10075;50.924;4.396;2023-05-07T08:45:04;19.90;99.90
19829;DHT22;10075;50.924;4.396;2023-05-07T08:47:42;20.00;99.90
19829;DHT22;10075;50.924;4.396;2023-05-07T08:50:11;20.10;99.90
19829;DHT22;10075;50.924;4.396;2023-05-07T08:52:39;20.20;99.90
19829;DHT22;10075;50.924;4.396;2023-05-07T08:55:09;20.20;99.90
19829;DHT22;10075;50.924;4.396;2023-05-07T08:57:36;20.30;99.90
19829;DHT22;10075;50.924;4.396;2023-05-07T09:00:05;20.20;99.90
19829;DHT22;10075;50.924;4.396;2023-05-07T09:02:32;20.30;99.90
19829;DHT22;10075;50.924;4.396;2023-05-07T09:05:00;20.20;99.90
19829;DHT22;10075;50.924;4.396;2023-05-07T09:07:28;20.10;99.90
19829;DHT22;10075;50.924;4.396;2023-05-07T09:09:56;20.00;99.90
19829;DHT22;10075;50.924;4.396;2023-05-07T09:12:23;20.00;99.90
19829;DHT22;10075;50.924;4.396;2023-05-07T09:14:50;20.10;99.90
19829;DHT22;10075;50.924;4.396;2023-05-07T09:17:18;20.20;99.90
19829;DHT22;10075;50.924;4.396;2023-05-07T09:19:45;20.20;99.90
19829;DHT22;10075;50.924;4.396;2023-05-07T09:22:13;20.30;99.90
19829;DHT22;10075;50.924;4.396;2023-05-07T09:24:47;20.40;99.90
19829;DHT22;10075;50.924;4.396;2023-05-07T09:27:14;20.40;99.90
19829;DHT22;10075;50.924;4.396;2023-05-07T09:29:41;20.30;99.90
19829;DHT22;10075;50.924;4.396;2023-05-07T09:32:10;20.30;99.90
19829;DHT22;10075;50.924;4.396;2023-05-07T09:34:37;20.30;99.90
19829;DHT22;10075;50.924;4.396;2023-05-07T09:37:05;20.20;99.90
19829;DHT22;10075;50.924;4.396;2023-05-07T09:39:41;20.30;99.90
19829;DHT22;10075;50.924;4.396;2023-05-07T09:42:08;20.30;99.90
19829;DHT22;10075;50.924;4.396;2023-05-07T09:44:36;20.30;99.90
19829;DHT22;10075;50.924;4.396;2023-05-07T09:47:05;20.30;99.90
19829;DHT22;10075;50.924;4.396;2023-05-07T09:49:34;20.40;99.90
19829;DHT22;10075;50.924;4.396;2023-05-07T09:52:03;20.50;99.90
19829;DHT22;10075;50.924;4.396;2023-05-07T09:54:32;20.60;99.90
19829;DHT22;10075;50.924;4.396;2023-05-07T09:57:01;20.70;99.90
19829;DHT22;10075;50.924;4.396;2023-05-07T09:59:30;20.90;99.90
19829;DHT22;10075;50.924;4.396;2023-05-07T10:01:58;21.10;99.90
19829;DHT22;10075;50.924;4.396;2023-05-07T10:04:26;21.30;99.90
19829;DHT22;10075;50.924;4.396;2023-05-07T10:06:53;21.50;99.90
19829;DHT22;10075;50.924;4.396;2023-05-07T10:09:21;21.70;99.90
19829;DHT22;10075;50.924;4.396;2023-05-07T10:11:49;21.80;99.90
19829;DHT22;10075;50.924;4.396;2023-05-07T10:14:20;21.80;99.90
19829;DHT22;10075;50.924;4.396;2023-05-07T10:16:48;21.90;99.90
19829;DHT22;10075;50.924;4.396;2023-05-07T10:19:15;21.80;99.90
19829;DHT22;10075;50.924;4.396;2023-05-07T10:21:47;21.80;99.90
19829;DHT22;10075;50.924;4.396;2023-05-07T10:24:19;21.70;99.90
19829;DHT22;10075;50.924;4.396;2023-05-07T10:26:49;21.70;99.90
19829;DHT22;10075;50.924;4.396;2023-05-07T10:29:28;21.70;99.90
19829;DHT22;10075;50.924;4.396;2023-05-07T10:31:59;21.70;99.90
19829;DHT22;10075;50.924;4.396;2023-05-07T10:34:37;21.80;99.90
19829;DHT22;10075;50.924;4.396;2023-05-07T10:37:05;21.80;99.90
19829;DHT22;10075;50.924;4.396;2023-05-07T10:39:33;21.90;99.90
19829;DHT22;10075;50.924;4.396;2023-05-07T10:42:08;21.90;99.90
19829;DHT22;10075;50.924;4.396;2023-05-07T10:44:36;22.10;99.90
19829;DHT22;10075;50.924;4.396;2023-05-07T10:47:08;22.10;99.90
19829;DHT22;10075;50.924;4.396;2023-05-07T10:49:36;22.10;99.90
19829;DHT22;10075;50.924;4.396;2023-05-07T10:52:15;22.10;99.90
19829;DHT22;10075;50.924;4.396;2023-05-07T10:54:42;22.30;99.90
19829;DHT22;10075;50.924;4.396;2023-05-07T10:57:34;22.40;99.90
19829;DHT22;10075;50.924;4.396;2023-05-07T11:00:43;22.50;99.90
19829;DHT22;10075;50.924;4.396;2023-05-07T11:03:10;22.60;99.90
19829;DHT22;10075;50.924;4.396;2023-05-07T11:05:41;22.70;99.90
19829;DHT22;10075;50.924;4.396;2023-05-07T11:08:09;22.80;99.90
19829;DHT22;10075;50.924;4.396;2023-05-07T11:10:50;22.70;99.90
19829;DHT22;10075;50.924;4.396;2023-05-07T11:13:18;22.80;99.90
19829;DHT22;10075;50.924;4.396;2023-05-07T11:15:47;22.70;99.90
19829;DHT22;10075;50.924;4.396;2023-05-07T11:18:16;22.60;99.90
19829;DHT22;10075;50.924;4.396;2023-05-07T11:20:54;22.70;99.90
19829;DHT22;10075;50.924;4.396;2023-05-07T11:26:47;22.70;99.90
19829;DHT22;10075;50.924;4.396;2023-05-07T11:29:16;22.70;99.90
19829;DHT22;10075;50.924;4.396;2023-05-07T11:31:48;22.70;99.90
19829;DHT22;10075;50.924;4.396;2023-05-07T11:34:21;22.90;99.90
19829;DHT22;10075;50.924;4.396;2023-05-07T11:36:49;23.00;99.90
19829;DHT22;10075;50.924;4.396;2023-05-07T11:39:27;23.10;99.90
19829;DHT22;10075;50.924;4.396;2023-05-07T11:41:54;23.30;99.90
19829;DHT22;10075;50.924;4.396;2023-05-07T11:44:21;23.40;99.90
19829;DHT22;10075;50.924;4.396;2023-05-07T11:46:50;23.40;99.90
19829;DHT22;10075;50.924;4.396;2023-05-07T11:49:17;23.60;99.90
19829;DHT22;10075;50.924;4.396;2023-05-07T11:51:45;23.70;99.90
19829;DHT22;10075;50.924;4.396;2023-05-07T11:54:15;23.90;99.90
19829;DHT22;10075;50.924;4.396;2023-05-07T11:56:44;24.00;99.90
19829;DHT22;10075;50.924;4.396;2023-05-07T11:59:18;24.10;99.90
19829;DHT22;10075;50.924;4.396;2023-05-07T12:01:49;24.20;99.90
19829;DHT22;10075;50.924;4.396;2023-05-07T12:04:19;24.30;99.90
19829;DHT22;10075;50.924;4.396;2023-05-07T12:06:47;24.40;99.90
19829;DHT22;10075;50.924;4.396;2023-05-07T12:09:16;24.50;99.90
19829;DHT22;10075;50.924;4.396;2023-05-07T12:11:46;24.50;99.90
19829;DHT22;10075;50.924;4.396;2023-05-07T12:14:13;24.60;99.90
19829;DHT22;10075;50.924;4.396;2023-05-07T12:16:41;24.70;99.90
19829;DHT22;10075;50.924;4.396;2023-05-07T12:19:11;24.80;99.90
19829;DHT22;10075;50.924;4.396;2023-05-07T12:21:39;24.90;99.90
19829;DHT22;10075;50.924;4.396;2023-05-07T12:24:06;25.00;99.90
19829;DHT22;10075;50.924;4.396;2023-05-07T12:26:37;25.00;99.90
19829;DHT22;10075;50.924;4.396;2023-05-07T12:29:04;25.10;99.90
19829;DHT22;10075;50.924;4.396;2023-05-07T12:31:31;25.10;99.90
19829;DHT22;10075;50.924;4.396;2023-05-07T12:33:58;25.20;99.90
19829;DHT22;10075;50.924;4.396;2023-05-07T12:36:36;25.30;99.90
19829;DHT22;10075;50.924;4.396;2023-05-07T12:39:04;25.40;99.90
19829;DHT22;10075;50.924;4.396;2023-05-07T12:41:36;25.30;99.90
19829;DHT22;10075;50.924;4.396;2023-05-07T12:44:04;25.40;99.90
19829;DHT22;10075;50.924;4.396;2023-05-07T12:46:31;25.50;99.90
19829;DHT22;10075;50.924;4.396;2023-05-07T12:48:59;25.50;99.90
19829;DHT22;10075;50.924;4.396;2023-05-07T12:51:29;25.50;99.90
19829;DHT22;10075;50.924;4.396;2023-05-07T12:53:56;25.60;99.90
19829;DHT22;10075;50.924;4.396;2023-05-07T12:56:24;25.50;99.90
19829;DHT22;10075;50.924;4.396;2023-05-07T12:58:51;25.30;99.90
19829;DHT22;10075;50.924;4.396;2023-05-07T13:01:18;25.40;99.90
19829;DHT22;10075;50.924;4.396;2023-05-07T13:03:48;25.30;99.90
19829;DHT22;10075;50.924;4.396;2023-05-07T13:06:16;25.30;99.90
19829;DHT22;10075;50.924;4.396;2023-05-07T13:08:44;25.40;99.90
19829;DHT22;10075;50.924;4.396;2023-05-07T13:11:12;25.50;99.90
19829;DHT22;10075;50.924;4.396;2023-05-07T13:13:40;25.60;99.90
19829;DHT22;10075;50.924;4.396;2023-05-07T13:16:08;25.70;99.90
19829;DHT22;10075;50.924;4.396;2023-05-07T13:18:37;25.70;99.90
19829;DHT22;10075;50.924;4.396;2023-05-07T13:21:05;25.80;99.90
19829;DHT22;10075;50.924;4.396;2023-05-07T13:23:32;25.80;99.90
19829;DHT22;10075;50.924;4.396;2023-05-07T13:26:00;25.80;99.90
19829;DHT22;10075;50.924;4.396;2023-05-07T13:28:27;25.70;99.90
19829;DHT22;10075;50.924;4.396;2023-05-07T13:30:54;25.60;99.90
19829;DHT22;10075;50.924;4.396;2023-05-07T13:33:21;25.40;99.90
19829;DHT22;10075;50.924;4.396;2023-05-07T13:35:49;25.20;99.90
19829;DHT22;10075;50.924;4.396;2023-05-07T13:38:16;25.00;99.90
19829;DHT22;10075;50.924;4.396;2023-05-07T13:40:43;24.90;99.90
19829;DHT22;10075;50.924;4.396;2023-05-07T13:43:12;24.60;99.90
19829;DHT22;10075;50.924;4.396;2023-05-07T13:45:40;24.60;99.90
19829;DHT22;10075;50.924;4.396;2023-05-07T13:48:07;24.70;99.90
19829;DHT22;10075;50.924;4.396;2023-05-07T13:50:34;24.70;99.90
19829;DHT22;10075;50.924;4.396;2023-05-07T13:53:01;24.50;99.90
19829;DHT22;10075;50.924;4.396;2023-05-07T13:55:29;24.30;99.90
19829;DHT22;10075;50.924;4.396;2023-05-07T13:57:57;24.40;99.90
19829;DHT22;10075;50.924;4.396;2023-05-07T14:00:26;24.40;99.90
19829;DHT22;10075;50.924;4.396;2023-05-07T14:02:53;24.20;99.90
19829;DHT22;10075;50.924;4.396;2023-05-07T14:05:21;24.30;99.90
19829;DHT22;10075;50.924;4.396;2023-05-07T14:07:48;24.40;99.90
19829;DHT22;10075;50.924;4.396;2023-05-07T14:10:17;24.40;99.90
19829;DHT22;10075;50.924;4.396;2023-05-07T14:12:44;24.30;99.90
19829;DHT22;10075;50.924;4.396;2023-05-07T14:15:12;24.30;99.90
19829;DHT22;10075;50.924;4.396;2023-05-07T14:17:40;24.10;99.90
19829;DHT22;10075;50.924;4.396;2023-05-07T14:20:08;24.10;99.90
19829;DHT22;10075;50.924;4.396;2023-05-07T14:22:36;24.00;99.90
19829;DHT22;10075;50.924;4.396;2023-05-07T14:25:03;23.90;99.90
19829;DHT22;10075;50.924;4.396;2023-05-07T14:27:30;24.10;99.90
19829;DHT22;10075;50.924;4.396;2023-05-07T14:29:57;24.20;99.90
19829;DHT22;10075;50.924;4.396;2023-05-07T14:32:24;24.40;99.90
19829;DHT22;10075;50.924;4.396;2023-05-07T14:34:53;24.40;99.90
19829;DHT22;10075;50.924;4.396;2023-05-07T14:37:20;24.20;99.90
19829;DHT22;10075;50.924;4.396;2023-05-07T14:39:47;24.00;99.90
19829;DHT22;10075;50.924;4.396;2023-05-07T14:42:14;24.00;99.90
19829;DHT22;10075;50.924;4.396;2023-05-07T14:44:41;23.70;99.90
19829;DHT22;10075;50.924;4.396;2023-05-07T14:47:08;23.70;99.90
19829;DHT22;10075;50.924;4.396;2023-05-07T14:49:35;23.70;99.90
19829;DHT22;10075;50.924;4.396;2023-05-07T14:52:04;23.80;99.90
19829;DHT22;10075;50.924;4.396;2023-05-07T14:54:33;24.00;99.90
19829;DHT22;10075;50.924;4.396;2023-05-07T14:57:01;24.20;99.90
19829;DHT22;10075;50.924;4.396;2023-05-07T14:59:28;24.40;99.90
19829;DHT22;10075;50.924;4.396;2023-05-07T15:01:55;24.50;99.90
19829;DHT22;10075;50.924;4.396;2023-05-07T15:04:23;24.10;99.90
19829;DHT22;10075;50.924;4.396;2023-05-07T15:06:50;24.10;99.90
19829;DHT22;10075;50.924;4.396;2023-05-07T15:09:19;24.20;99.90
19829;DHT22;10075;50.924;4.396;2023-05-07T15:11:46;24.30;99.90
19829;DHT22;10075;50.924;4.396;2023-05-07T15:14:13;24.30;99.90
19829;DHT22;10075;50.924;4.396;2023-05-07T15:16:40;24.20;99.90
19829;DHT22;10075;50.924;4.396;2023-05-07T15:19:07;24.30;99.90
19829;DHT22;10075;50.924;4.396;2023-05-07T15:21:34;24.30;99.90
19829;DHT22;10075;50.924;4.396;2023-05-07T15:24:01;24.30;99.90
19829;DHT22;10075;50.924;4.396;2023-05-07T15:26:30;24.40;99.90
19829;DHT22;10075;50.924;4.396;2023-05-07T15:28:57;24.50;99.90
19829;DHT22;10075;50.924;4.396;2023-05-07T15:31:24;24.50;99.90
19829;DHT22;10075;50.924;4.396;2023-05-07T15:33:51;24.50;99.90
19829;DHT22;10075;50.924;4.396;2023-05-07T15:36:19;24.50;99.90
19829;DHT22;10075;50.924;4.396;2023-05-07T15:38:46;24.40;99.90